createdAt,value
2019-06-10T00:02:42.281Z,44.6
2019-06-10T00:07:42.488Z,44.5
2019-06-10T00:12:42.685Z,44.4
2019-06-10T00:17:53.349Z,44.4
2019-06-10T00:23:01.706Z,44.4
2019-06-10T00:28:03.048Z,44.3
2019-06-10T00:33:05.830Z,44.2
2019-06-10T00:38:08.699Z,44.2
2019-06-10T00:43:12.699Z,44.2
2019-06-10T00:48:21.797Z,44.1
2019-06-10T00:53:25.438Z,44.1
2019-06-10T00:58:25.647Z,44
2019-06-10T01:03:25.846Z,44
2019-06-10T01:08:26.039Z,43.9
2019-06-10T01:13:26.225Z,43.9
2019-06-10T01:18:35.381Z,43.8
2019-06-10T01:23:38.445Z,43.8
2019-06-10T01:28:40.896Z,43.7
2019-06-10T01:33:41.293Z,43.7
2019-06-10T01:38:41.463Z,43.6
2019-06-10T01:43:41.639Z,43.6
2019-06-10T01:48:47.766Z,43.6
2019-06-10T01:53:50.995Z,43.5
2019-06-10T01:58:51.626Z,43.4
2019-06-10T02:03:51.997Z,43.4
2019-06-10T02:08:52.266Z,43.4
2019-06-10T02:13:52.422Z,43.3
2019-06-10T02:19:00.011Z,43.3
2019-06-10T02:24:01.032Z,43.3
2019-06-10T02:29:01.306Z,43.2
2019-06-10T02:34:02.498Z,43.1
2019-06-10T02:39:04.515Z,43.1
2019-06-10T02:44:05.003Z,43.1
2019-06-10T02:49:20.319Z,43
2019-06-10T02:54:31.045Z,43
2019-06-10T02:59:36.101Z,42.9
2019-06-10T03:04:37.474Z,42.9
2019-06-10T03:09:38.034Z,42.9
2019-06-10T03:14:38.229Z,42.8
2019-06-10T03:19:47.599Z,42.7
2019-06-10T03:24:52.270Z,42.7
2019-06-10T03:29:54.260Z,42.7
2019-06-10T03:34:54.967Z,42.6
2019-06-10T03:39:55.337Z,42.6
2019-06-10T03:44:55.512Z,42.3
2019-06-10T03:49:57.254Z,41
2019-06-10T03:54:59.067Z,40.8
2019-06-10T04:00:02.228Z,40.8
2019-06-10T04:05:08.188Z,40.8
2019-06-10T04:10:12.406Z,40.7
2019-06-10T04:15:14.382Z,40.6
2019-06-10T04:20:16.167Z,40.6
2019-06-10T04:25:17.942Z,40.6
2019-06-10T04:30:20.067Z,40.6
2019-06-10T04:35:23.303Z,40.5
2019-06-10T04:40:27.521Z,40.5
2019-06-10T04:45:32.193Z,40.4
2019-06-10T04:50:42.119Z,40.4
2019-06-10T04:55:44.364Z,40.4
2019-06-10T05:00:46.137Z,40.3
2019-06-10T05:05:47.906Z,40.3
2019-06-10T05:10:49.685Z,40.2
2019-06-10T05:15:52.674Z,39.3
2019-06-10T05:20:58.504Z,39
2019-06-10T05:26:02.676Z,38.9
2019-06-10T05:31:04.725Z,38.9
2019-06-10T05:36:06.487Z,38.9
2019-06-10T05:41:08.207Z,38.8
2019-06-10T05:46:09.924Z,38.7
2019-06-10T05:51:12.354Z,38.7
2019-06-10T05:56:14.223Z,38.7
2019-06-10T06:01:15.941Z,38.7
2019-06-10T06:06:17.860Z,38.7
2019-06-10T06:11:19.565Z,38.6
2019-06-10T06:16:22.974Z,38.6
2019-06-10T06:21:29.896Z,38.6
2019-06-10T06:26:36.220Z,38.6
2019-06-10T06:31:39.373Z,38.6
2019-06-10T06:36:42.221Z,38.5
2019-06-10T06:41:44.149Z,38.5
2019-06-10T06:46:45.946Z,38.5
2019-06-10T06:51:55.055Z,38.4
2019-06-10T06:56:57.794Z,38.4
2019-06-10T07:01:59.508Z,38.4
2019-06-10T07:07:02.630Z,38.4
2019-06-10T07:12:04.537Z,38.3
2019-06-10T07:17:06.238Z,38.3
2019-06-10T07:22:12.369Z,38.2
2019-06-10T07:27:14.621Z,38.2
2019-06-10T07:32:16.356Z,38.2
2019-06-10T07:37:18.066Z,38.2
2019-06-10T07:42:19.757Z,38.2
2019-06-10T07:47:23.079Z,38.1
2019-06-10T07:52:24.913Z,38.1
2019-06-10T07:57:32.534Z,38.1
2019-06-10T08:02:35.618Z,38.1
2019-06-10T08:07:38.782Z,38.1
2019-06-10T08:12:41.732Z,38
2019-06-10T08:17:45.899Z,38
2019-06-10T08:22:52.431Z,37.9
2019-06-10T08:27:55.967Z,37.9
2019-06-10T08:32:57.635Z,37.9
2019-06-10T08:37:59.280Z,37.9
2019-06-10T08:43:04.011Z,37.9
2019-06-10T08:48:06.036Z,37.9
2019-06-10T08:53:14.587Z,37.8
2019-06-10T08:58:17.369Z,37.8
2019-06-10T09:03:19.022Z,37.7
2019-06-10T09:08:20.662Z,37.7
2019-06-10T09:13:22.484Z,37.7
2019-06-10T09:18:24.243Z,37.7
2019-06-10T09:23:25.967Z,37.7
2019-06-10T09:28:27.688Z,37.7
2019-06-10T09:33:29.335Z,37.6
2019-06-10T09:38:33.323Z,37.6
2019-06-10T09:43:35.501Z,37.6
2019-06-10T09:48:37.147Z,37.6
2019-06-10T09:53:42.597Z,37.6
2019-06-10T09:58:49.652Z,37.5
2019-06-10T10:03:59.210Z,37.5
2019-06-10T10:09:03.439Z,37.5
2019-06-10T10:14:09.341Z,37.4
2019-06-10T10:19:13.039Z,37.4
2019-06-10T10:24:15.245Z,37.4
2019-06-10T10:29:16.944Z,37.4
2019-06-10T10:34:18.588Z,37.4
2019-06-10T10:39:21.937Z,37.4
2019-06-10T10:44:25.958Z,37.3
2019-06-10T10:49:27.593Z,37.3
2019-06-10T10:54:33.666Z,37.2
2019-06-10T10:59:36.102Z,37.2
2019-06-10T11:04:37.733Z,37.2
2019-06-10T11:09:39.367Z,37.2
2019-06-10T11:14:42.405Z,37.2
2019-06-10T11:19:45.161Z,37.2
2019-06-10T11:24:47.997Z,37.1
2019-06-10T11:29:53.130Z,37.1
2019-06-10T11:34:56.865Z,37.1
2019-06-10T11:39:58.691Z,37.1
2019-06-10T11:45:02.762Z,37.1
2019-06-10T11:50:04.810Z,37.1
2019-06-10T11:55:14.980Z,37
2019-06-10T12:00:18.170Z,37
2019-06-10T12:05:21.049Z,37
2019-06-10T12:10:25.032Z,36.9
2019-06-10T12:15:26.721Z,36.9
2019-06-10T12:20:28.670Z,36.9
2019-06-10T12:25:36.429Z,36.9
2019-06-10T12:30:42.316Z,36.9
2019-06-10T12:35:44.270Z,36.9
2019-06-10T12:40:45.919Z,36.8
2019-06-10T12:45:47.804Z,36.8
2019-06-10T12:50:49.455Z,36.8
2019-06-10T12:55:53.482Z,36.7
2019-06-10T13:00:57.199Z,36.7
2019-06-10T13:05:59.553Z,36.7
2019-06-10T13:11:02.005Z,36.7
2019-06-10T13:16:07.817Z,36.7
2019-06-10T13:21:13.555Z,36.7
2019-06-10T13:26:17.895Z,36.7
2019-06-10T13:31:19.650Z,36.6
2019-06-10T13:36:25.444Z,36.6
2019-06-10T13:41:27.612Z,36.6
2019-06-10T13:46:29.264Z,36.6
2019-06-10T13:51:32.290Z,36.6
2019-06-10T13:56:45.631Z,36.6
2019-06-10T14:01:48.328Z,36.5
2019-06-10T14:06:51.196Z,36.5
2019-06-10T14:11:55.479Z,36.5
2019-06-10T14:16:57.106Z,36.4
2019-06-10T14:21:58.742Z,36.4
2019-06-10T14:27:02.846Z,36.4
2019-06-10T14:32:05.777Z,36.4
2019-06-10T14:37:07.734Z,36.4
2019-06-10T14:42:10.823Z,36.4
2019-06-10T14:47:16.405Z,36.4
2019-06-10T14:52:18.638Z,36.3
2019-06-10T14:57:22.668Z,36.3
2019-06-10T15:02:24.543Z,36.3
2019-06-10T15:07:26.170Z,36.2
2019-06-10T15:12:27.801Z,36.2
2019-06-10T15:17:29.420Z,36.2
2019-06-10T15:22:32.969Z,36.1
2019-06-10T15:27:34.677Z,36.1
2019-06-10T15:32:36.274Z,36.1
2019-06-10T15:37:37.910Z,36.1
2019-06-10T15:42:39.511Z,36.1
2019-06-10T15:47:42.702Z,36.1
2019-06-10T15:52:44.498Z,36.1
2019-06-10T15:57:46.433Z,36
2019-06-10T16:02:48.258Z,36
2019-06-10T16:07:49.903Z,36
2019-06-10T16:12:52.703Z,36
2019-06-10T16:17:54.495Z,35.9
2019-06-10T16:22:56.104Z,35.9
2019-06-10T16:27:57.771Z,35.9
2019-06-10T16:32:59.403Z,35.9
2019-06-10T16:38:01.084Z,37.8
2019-06-10T16:43:02.799Z,39.6
2019-06-10T16:48:04.560Z,40.6
2019-06-10T16:53:06.368Z,41.1
2019-06-10T16:58:08.499Z,41.9
2019-06-10T17:03:08.795Z,42.4
2019-06-10T17:08:08.977Z,43.1
2019-06-10T17:13:09.210Z,43.6
2019-06-10T17:18:09.663Z,44.1
2019-06-10T17:23:12.241Z,44.5
2019-06-10T17:28:17.976Z,45
2019-06-10T17:33:20.255Z,45.4
2019-06-10T17:38:22.775Z,45.7
2019-06-10T17:43:23.344Z,45.9
2019-06-10T17:48:24.577Z,46
2019-06-10T17:53:26.287Z,46.2
2019-06-10T17:58:38.311Z,46.2
2019-06-10T18:03:40.053Z,46.2
2019-06-10T18:08:40.829Z,46.4
2019-06-10T18:13:42.787Z,46.4
2019-06-10T18:18:43.368Z,46.4
2019-06-10T18:23:43.759Z,46.3
2019-06-10T18:29:00.163Z,46.7
2019-06-10T18:34:02.512Z,47
2019-06-10T18:39:03.014Z,47.2
2019-06-10T18:44:16.345Z,47.2
2019-06-10T18:49:19.066Z,47.2
2019-06-10T18:54:19.359Z,47.6
2019-06-10T18:59:21.142Z,47.8
2019-06-10T19:04:22.395Z,47.8
2019-06-10T19:09:22.936Z,47.7
2019-06-10T19:14:23.252Z,47.7
2019-06-10T19:19:23.549Z,47.7
2019-06-10T19:24:23.828Z,47.7
2019-06-10T19:29:33.339Z,47.7
2019-06-10T19:34:35.500Z,47.6
2019-06-10T19:39:41.579Z,47.6
2019-06-10T19:44:45.905Z,47.6
2019-06-10T19:49:46.348Z,47.5
2019-06-10T19:54:46.633Z,47.5
2019-06-10T20:00:03.193Z,47.4
2019-06-10T20:05:05.489Z,47.4
2019-06-10T20:10:05.743Z,47.4
2019-06-10T20:15:06.011Z,47.4
2019-06-10T20:20:06.471Z,47.3
2019-06-10T20:25:06.760Z,47.2
2019-06-10T20:30:21.440Z,47.2
2019-06-10T20:35:23.973Z,47.2
2019-06-10T20:40:24.283Z,47.2
2019-06-10T20:45:24.533Z,47.1
2019-06-10T20:50:24.769Z,47.1
2019-06-10T20:55:39.984Z,47.1
2019-06-10T21:00:45.729Z,47
2019-06-10T21:05:47.717Z,47
2019-06-10T21:10:49.798Z,46.9
2019-06-10T21:15:54.747Z,46.9
2019-06-10T21:20:56.167Z,46.9
2019-06-10T21:25:56.654Z,46.8
2019-06-10T21:30:58.736Z,46.8
2019-06-10T21:35:59.367Z,46.7
2019-06-10T21:40:59.654Z,46.7
2019-06-10T21:45:59.907Z,46.7
2019-06-10T21:51:00.210Z,46.6
2019-06-10T21:56:00.492Z,46.6
2019-06-10T22:01:11.909Z,46.6
2019-06-10T22:06:13.335Z,46.5
2019-06-10T22:11:13.901Z,46.5
2019-06-10T22:16:14.287Z,46.4
2019-06-10T22:21:14.756Z,46.4
2019-06-10T22:26:15.172Z,46.3
2019-06-10T22:31:22.546Z,46.3
2019-06-10T22:36:24.358Z,46.2
2019-06-10T22:41:24.631Z,46.2
2019-06-10T22:46:24.891Z,46.2
2019-06-10T22:51:25.162Z,46.1
2019-06-10T22:56:25.411Z,46.1
2019-06-10T23:01:33.757Z,46.1
2019-06-10T23:06:35.632Z,46
2019-06-10T23:11:35.877Z,46
2019-06-10T23:16:36.175Z,45.9
2019-06-10T23:21:36.446Z,45.9
2019-06-10T23:26:36.708Z,45.8
2019-06-10T23:31:49.460Z,45.8
2019-06-10T23:36:54.563Z,45.8
2019-06-10T23:41:56.681Z,45.7
2019-06-10T23:46:59.345Z,45.6
2019-06-10T23:52:00.864Z,45.6
2019-06-10T23:57:05.683Z,45.6
